sensor_id;sensor_type;location;lat;lon;timestamp;pressure;altitude;pressure_sealevel;temperature;humidity
21824;BME280;11074;48.596;9.238;2022-11-04T00:00:52;97292.63;;;11.97;100.00
21824;BME280;11074;48.596;9.238;2022-11-04T00:03:18;97293.66;;;12.01;100.00
21824;BME280;11074;48.596;9.238;2022-11-04T00:05:44;97285.38;;;11.98;100.00
21824;BME280;11074;48.596;9.238;2022-11-04T00:08:09;97287.78;;;11.99;100.00
21824;BME280;11074;48.596;9.238;2022-11-04T00:10:54;97277.06;;;11.99;100.00
21824;BME280;11074;48.596;9.238;2022-11-04T00:13:38;97284.31;;;11.99;100.00
21824;BME280;11074;48.596;9.238;2022-11-04T00:16:04;97278.66;;;12.00;100.00
21824;BME280;11074;48.596;9.238;2022-11-04T00:18:49;97277.56;;;12.01;100.00
21824;BME280;11074;48.596;9.238;2022-11-04T00:21:15;97290.97;;;12.01;100.00
21824;BME280;11074;48.596;9.238;2022-11-04T00:24:00;97276.56;;;11.97;100.00
21824;BME280;11074;48.596;9.238;2022-11-04T00:26:44;97276.56;;;11.97;100.00
21824;BME280;11074;48.596;9.238;2022-11-04T00:29:28;97285.38;;;11.98;100.00
21824;BME280;11074;48.596;9.238;2022-11-04T00:31:54;97280.00;;;11.98;100.00
21824;BME280;11074;48.596;9.238;2022-11-04T00:34:38;97280.56;;;11.95;100.00
21824;BME280;11074;48.596;9.238;2022-11-04T00:37:03;97289.41;;;11.95;100.00
21824;BME280;11074;48.596;9.238;2022-11-04T00:39:29;97284.59;;;11.97;100.00
21824;BME280;11074;48.596;9.238;2022-11-04T00:41:55;97293.19;;;11.94;100.00
21824;BME280;11074;48.596;9.238;2022-11-04T00:44:20;97295.88;;;11.94;100.00
21824;BME280;11074;48.596;9.238;2022-11-04T00:46:46;97297.44;;;11.95;100.00
21824;BME280;11074;48.596;9.238;2022-11-04T00:49:12;97303.09;;;11.94;100.00
21824;BME280;11074;48.596;9.238;2022-11-04T00:51:38;97295.34;;;11.92;100.00
21824;BME280;11074;48.596;9.238;2022-11-04T00:54:04;97308.72;;;11.92;100.00
21824;BME280;11074;48.596;9.238;2022-11-04T00:56:30;97301.78;;;11.91;100.00
21824;BME280;11074;48.596;9.238;2022-11-04T00:58:58;97302.84;;;11.90;100.00
21824;BME280;11074;48.596;9.238;2022-11-04T01:01:24;97301.88;;;11.81;100.00
21824;BME280;11074;48.596;9.238;2022-11-04T01:03:52;97301.28;;;11.84;100.00
21824;BME280;11074;48.596;9.238;2022-11-04T01:06:21;97303.97;;;11.84;100.00
21824;BME280;11074;48.596;9.238;2022-11-04T01:08:47;97297.53;;;11.85;100.00
21824;BME280;11074;48.596;9.238;2022-11-04T01:11:14;97308.25;;;11.85;100.00
21824;BME280;11074;48.596;9.238;2022-11-04T01:13:40;97325.09;;;11.91;100.00
21824;BME280;11074;48.596;9.238;2022-11-04T01:16:09;97329.13;;;11.88;100.00
21824;BME280;11074;48.596;9.238;2022-11-04T01:18:36;97326.44;;;11.88;100.00
21824;BME280;11074;48.596;9.238;2022-11-04T01:21:04;97332.88;;;11.87;100.00
21824;BME280;11074;48.596;9.238;2022-11-04T01:23:33;97336.66;;;11.86;100.00
21824;BME280;11074;48.596;9.238;2022-11-04T01:25:59;97328.13;;;11.79;100.00
21824;BME280;11074;48.596;9.238;2022-11-04T01:28:24;97324.66;;;11.79;100.00
21824;BME280;11074;48.596;9.238;2022-11-04T01:30:50;97324.88;;;11.82;100.00
21824;BME280;11074;48.596;9.238;2022-11-04T01:33:16;97324.66;;;11.79;100.00
21824;BME280;11074;48.596;9.238;2022-11-04T01:35:42;97332.41;;;11.80;99.79
21824;BME280;11074;48.596;9.238;2022-11-04T01:38:08;97335.38;;;11.79;99.87
21824;BME280;11074;48.596;9.238;2022-11-04T01:40:39;97339.06;;;11.83;99.38
21824;BME280;11074;48.596;9.238;2022-11-04T01:43:18;97324.69;;;11.74;99.11
21824;BME280;11074;48.596;9.238;2022-11-04T01:46:07;97327.34;;;11.79;98.80
21824;BME280;11074;48.596;9.238;2022-11-04T01:48:34;97322.81;;;11.74;98.36
21824;BME280;11074;48.596;9.238;2022-11-04T01:51:00;97328.97;;;11.75;98.54
21824;BME280;11074;48.596;9.238;2022-11-04T01:53:39;97332.16;;;11.77;98.80
21824;BME280;11074;48.596;9.238;2022-11-04T01:56:10;97324.41;;;11.75;98.62
21824;BME280;11074;48.596;9.238;2022-11-04T01:58:44;97323.84;;;11.78;98.60
21824;BME280;11074;48.596;9.238;2022-11-04T02:01:12;97306.97;;;11.78;98.27
21824;BME280;11074;48.596;9.238;2022-11-04T02:03:53;97309.38;;;11.79;98.53
21824;BME280;11074;48.596;9.238;2022-11-04T02:06:21;97308.56;;;11.84;98.12
21824;BME280;11074;48.596;9.238;2022-11-04T02:08:47;97300.56;;;11.79;98.01
21824;BME280;11074;48.596;9.238;2022-11-04T02:11:14;97308.91;;;11.72;98.03
21824;BME280;11074;48.596;9.238;2022-11-04T02:14:01;97311.03;;;11.75;98.01
21824;BME280;11074;48.596;9.238;2022-11-04T02:16:43;97317.22;;;11.71;98.28
21824;BME280;11074;48.596;9.238;2022-11-04T02:31:52;97314.56;;;11.71;98.75
21824;BME280;11074;48.596;9.238;2022-11-04T02:40:32;97321.19;;;11.78;98.02
21824;BME280;11074;48.596;9.238;2022-11-04T02:43:30;97323.84;;;11.78;97.91
21824;BME280;11074;48.596;9.238;2022-11-04T02:46:04;97317.75;;;11.73;98.02
21824;BME280;11074;48.596;9.238;2022-11-04T02:48:46;97310.25;;;11.70;98.87
21824;BME280;11074;48.596;9.238;2022-11-04T02:51:38;97314.25;;;11.72;99.01
21824;BME280;11074;48.596;9.238;2022-11-04T02:54:13;97310.50;;;11.73;98.67
21824;BME280;11074;48.596;9.238;2022-11-04T02:56:48;97309.47;;;11.69;98.51
21824;BME280;11074;48.596;9.238;2022-11-04T02:59:33;97308.66;;;11.69;98.94
21824;BME280;11074;48.596;9.238;2022-11-04T03:02:05;97312.41;;;11.68;98.70
21824;BME280;11074;48.596;9.238;2022-11-04T03:04:39;97302.75;;;11.67;98.95
21824;BME280;11074;48.596;9.238;2022-11-04T03:07:10;97305.72;;;11.70;98.91
21824;BME280;11074;48.596;9.238;2022-11-04T03:09:40;97308.41;;;11.70;98.43
21824;BME280;11074;48.596;9.238;2022-11-04T03:12:15;97316.69;;;11.69;98.32
21824;BME280;11074;48.596;9.238;2022-11-04T03:14:52;97309.47;;;11.64;98.58
21824;BME280;11074;48.596;9.238;2022-11-04T03:18:02;97321.25;;;11.63;98.64
21824;BME280;11074;48.596;9.238;2022-11-04T03:20:31;97315.38;;;11.61;98.75
21824;BME280;11074;48.596;9.238;2022-11-04T03:22:57;97330.63;;;11.61;98.36
21824;BME280;11074;48.596;9.238;2022-11-04T03:25:46;97334.13;;;11.61;98.77
21824;BME280;11074;48.596;9.238;2022-11-04T03:28:26;97338.63;;;11.66;98.28
21824;BME280;11074;48.596;9.238;2022-11-04T03:31:01;97333.59;;;11.59;98.27
21824;BME280;11074;48.596;9.238;2022-11-04T03:33:51;97334.13;;;11.61;98.38
21824;BME280;11074;48.596;9.238;2022-11-04T03:36:20;97341.59;;;11.64;98.26
21824;BME280;11074;48.596;9.238;2022-11-04T03:38:48;97350.69;;;11.63;97.68
21824;BME280;11074;48.596;9.238;2022-11-04T03:41:23;97345.63;;;11.62;97.50
21824;BME280;11074;48.596;9.238;2022-11-04T03:43:52;97347.50;;;11.61;97.61
21824;BME280;11074;48.596;9.238;2022-11-04T03:46:18;97348.00;;;11.63;97.13
21824;BME280;11074;48.596;9.238;2022-11-04T03:48:47;97370.75;;;11.66;97.33
21824;BME280;11074;48.596;9.238;2022-11-04T03:51:13;97369.44;;;11.63;97.51
21824;BME280;11074;48.596;9.238;2022-11-04T03:53:39;97378.84;;;11.55;98.02
21824;BME280;11074;48.596;9.238;2022-11-04T04:02:12;97373.78;;;11.54;98.63
21824;BME280;11074;48.596;9.238;2022-11-04T04:05:02;97375.13;;;11.56;98.13
21824;BME280;11074;48.596;9.238;2022-11-04T04:10:55;97374.81;;;11.58;97.76
21824;BME280;11074;48.596;9.238;2022-11-04T04:18:51;97352.38;;;11.54;97.83
21824;BME280;11074;48.596;9.238;2022-11-04T04:21:25;97363.34;;;11.52;97.42
21824;BME280;11074;48.596;9.238;2022-11-04T04:23:55;97370.59;;;11.52;97.43
21824;BME280;11074;48.596;9.238;2022-11-04T04:26:44;97385.06;;;11.51;96.65
21824;BME280;11074;48.596;9.238;2022-11-04T04:29:31;97397.38;;;11.47;96.50
21824;BME280;11074;48.596;9.238;2022-11-04T04:31:58;97396.34;;;11.43;96.40
21824;BME280;11074;48.596;9.238;2022-11-04T04:34:28;97400.03;;;11.47;97.01
21824;BME280;11074;48.596;9.238;2022-11-04T04:37:18;97408.06;;;11.47;96.92
21824;BME280;11074;48.596;9.238;2022-11-04T04:39:56;97399.31;;;11.41;96.68
21824;BME280;11074;48.596;9.238;2022-11-04T04:42:41;97399.31;;;11.41;97.17
21824;BME280;11074;48.596;9.238;2022-11-04T04:45:35;97382.94;;;11.43;96.95
21824;BME280;11074;48.596;9.238;2022-11-04T04:48:03;97362.38;;;11.38;96.03
21824;BME280;11074;48.596;9.238;2022-11-04T04:50:36;97359.72;;;11.38;97.45
21824;BME280;11074;48.596;9.238;2022-11-04T04:53:02;97363.75;;;11.36;96.28
21824;BME280;11074;48.596;9.238;2022-11-04T04:55:31;97329.53;;;11.28;96.27
21824;BME280;11074;48.596;9.238;2022-11-04T04:57:58;97322.34;;;11.18;96.83
21824;BME280;11074;48.596;9.238;2022-11-04T05:00:24;97312.00;;;11.07;96.83
21824;BME280;11074;48.596;9.238;2022-11-04T05:02:50;97314.13;;;11.10;96.41
21824;BME280;11074;48.596;9.238;2022-11-04T05:05:17;97317.03;;;11.13;96.36
21824;BME280;11074;48.596;9.238;2022-11-04T05:07:43;97315.13;;;11.19;96.40
21824;BME280;11074;48.596;9.238;2022-11-04T05:10:12;97301.25;;;11.17;95.66
21824;BME280;11074;48.596;9.238;2022-11-04T05:12:39;97310.09;;;11.12;95.88
21824;BME280;11074;48.596;9.238;2022-11-04T05:15:25;97313.28;;;11.14;96.38
21824;BME280;11074;48.596;9.238;2022-11-04T05:17:59;97319.97;;;11.17;96.18
21824;BME280;11074;48.596;9.238;2022-11-04T05:20:26;97328.00;;;11.17;96.35
21824;BME280;11074;48.596;9.238;2022-11-04T05:22:53;97328.00;;;11.17;96.90
21824;BME280;11074;48.596;9.238;2022-11-04T05:25:19;97332.25;;;11.18;96.68
21824;BME280;11074;48.596;9.238;2022-11-04T05:27:45;97328.25;;;11.15;96.67
21824;BME280;11074;48.596;9.238;2022-11-04T05:30:11;97328.59;;;11.04;96.78
21824;BME280;11074;48.596;9.238;2022-11-04T05:32:37;97333.44;;;11.02;96.79
21824;BME280;11074;48.596;9.238;2022-11-04T05:35:03;97340.09;;;11.04;97.63
21824;BME280;11074;48.596;9.238;2022-11-04T05:37:29;97339.28;;;11.04;96.35
21824;BME280;11074;48.596;9.238;2022-11-04T05:39:54;97340.09;;;10.99;95.67
21824;BME280;11074;48.596;9.238;2022-11-04T05:42:20;97339.31;;;10.99;96.58
21824;BME280;11074;48.596;9.238;2022-11-04T05:44:46;97332.34;;;11.03;96.11
21824;BME280;11074;48.596;9.238;2022-11-04T05:47:12;97325.63;;;11.05;96.14
21824;BME280;11074;48.596;9.238;2022-11-04T05:49:37;97325.66;;;11.00;96.17
21824;BME280;11074;48.596;9.238;2022-11-04T05:52:04;97322.53;;;10.88;96.58
21824;BME280;11074;48.596;9.238;2022-11-04T05:54:30;97311.63;;;10.74;96.38
21824;BME280;11074;48.596;9.238;2022-11-04T05:56:56;97301.78;;;10.60;96.76
21824;BME280;11074;48.596;9.238;2022-11-04T05:59:22;97310.88;;;10.59;96.77
21824;BME280;11074;48.596;9.238;2022-11-04T06:01:47;97314.25;;;10.79;96.52
21824;BME280;11074;48.596;9.238;2022-11-04T06:04:17;97321.97;;;10.86;95.70
21824;BME280;11074;48.596;9.238;2022-11-04T06:06:44;97314.25;;;10.84;95.52
21824;BME280;11074;48.596;9.238;2022-11-04T06:09:09;97320.13;;;10.81;95.16
21824;BME280;11074;48.596;9.238;2022-11-04T06:11:37;97335.94;;;10.73;96.32
21824;BME280;11074;48.596;9.238;2022-11-04T06:14:03;97331.94;;;10.70;95.13
21824;BME280;11074;48.596;9.238;2022-11-04T06:16:29;97338.88;;;10.76;96.14
21824;BME280;11074;48.596;9.238;2022-11-04T06:18:55;97348.72;;;10.81;95.38
21824;BME280;11074;48.596;9.238;2022-11-04T06:21:31;97353.03;;;10.77;95.15
21824;BME280;11074;48.596;9.238;2022-11-04T06:23:58;97363.16;;;10.85;94.29
21824;BME280;11074;48.596;9.238;2022-11-04T06:26:28;97364.53;;;10.82;95.33
21824;BME280;11074;48.596;9.238;2022-11-04T06:28:56;97366.91;;;10.84;95.91
21824;BME280;11074;48.596;9.238;2022-11-04T06:31:22;97370.09;;;10.86;95.28
21824;BME280;11074;48.596;9.238;2022-11-04T06:33:48;97370.94;;;10.81;94.43
21824;BME280;11074;48.596;9.238;2022-11-04T06:36:15;97386.44;;;10.84;94.60
21824;BME280;11074;48.596;9.238;2022-11-04T06:38:41;97373.59;;;10.81;94.20
21824;BME280;11074;48.596;9.238;2022-11-04T06:41:11;97379.00;;;10.71;95.27
21824;BME280;11074;48.596;9.238;2022-11-04T06:43:37;97385.66;;;10.74;95.46
21824;BME280;11074;48.596;9.238;2022-11-04T06:46:04;97389.66;;;10.76;95.28
21824;BME280;11074;48.596;9.238;2022-11-04T06:48:30;97382.44;;;10.77;95.24
21824;BME280;11074;48.596;9.238;2022-11-04T06:50:57;97377.63;;;10.79;94.85
21824;BME280;11074;48.596;9.238;2022-11-04T06:53:24;97377.91;;;10.77;95.52
21824;BME280;11074;48.596;9.238;2022-11-04T06:55:52;97375.22;;;10.77;95.34
21824;BME280;11074;48.596;9.238;2022-11-04T06:58:19;97376.56;;;10.70;94.75
21824;BME280;11074;48.596;9.238;2022-11-04T07:00:51;97376.84;;;10.68;94.60
21824;BME280;11074;48.596;9.238;2022-11-04T07:03:18;97366.97;;;10.64;94.58
21824;BME280;11074;48.596;9.238;2022-11-04T07:05:44;97368.34;;;10.51;95.24
21824;BME280;11074;48.596;9.238;2022-11-04T07:08:10;97347.25;;;10.45;94.86
21824;BME280;11074;48.596;9.238;2022-11-04T07:10:35;97338.97;;;10.36;95.70
21824;BME280;11074;48.596;9.238;2022-11-04T07:13:01;97336.84;;;10.38;96.42
21824;BME280;11074;48.596;9.238;2022-11-04T07:15:26;97333.09;;;10.44;96.05
21824;BME280;11074;48.596;9.238;2022-11-04T07:17:52;97337.34;;;10.55;95.83
21824;BME280;11074;48.596;9.238;2022-11-04T07:20:18;97340.59;;;10.42;95.46
21824;BME280;11074;48.596;9.238;2022-11-04T07:22:43;97335.75;;;10.49;95.38
21824;BME280;11074;48.596;9.238;2022-11-04T07:25:09;97338.38;;;10.59;94.75
21824;BME280;11074;48.596;9.238;2022-11-04T07:27:35;97340.25;;;10.64;94.88
21824;BME280;11074;48.596;9.238;2022-11-04T07:30:01;97343.72;;;10.69;94.34
21824;BME280;11074;48.596;9.238;2022-11-04T07:32:27;97347.97;;;10.70;94.34
21824;BME280;11074;48.596;9.238;2022-11-04T07:34:52;97352.75;;;10.78;94.92
21824;BME280;11074;48.596;9.238;2022-11-04T07:37:18;97349.81;;;10.80;93.97
21824;BME280;11074;48.596;9.238;2022-11-04T07:39:43;97348.22;;;10.79;93.80
21824;BME280;11074;48.596;9.238;2022-11-04T07:42:09;97343.38;;;10.81;94.43
21824;BME280;11074;48.596;9.238;2022-11-04T07:44:35;97346.31;;;10.84;94.66
21824;BME280;11074;48.596;9.238;2022-11-04T07:47:00;97338.03;;;10.86;94.21
21824;BME280;11074;48.596;9.238;2022-11-04T07:49:26;97344.47;;;10.85;95.36
21824;BME280;11074;48.596;9.238;2022-11-04T07:51:52;97340.94;;;10.89;95.58
21824;BME280;11074;48.596;9.238;2022-11-04T07:54:17;97331.88;;;10.90;95.46
21824;BME280;11074;48.596;9.238;2022-11-04T07:56:43;97334.53;;;10.95;95.12
21824;BME280;11074;48.596;9.238;2022-11-04T07:59:09;97325.44;;;10.91;94.88
21824;BME280;11074;48.596;9.238;2022-11-04T08:01:35;97332.06;;;10.99;95.23
21824;BME280;11074;48.596;9.238;2022-11-04T08:04:01;97317.38;;;10.96;95.00
21824;BME280;11074;48.596;9.238;2022-11-04T08:06:29;97323.25;;;11.04;95.52
21824;BME280;11074;48.596;9.238;2022-11-04T08:08:56;97322.41;;;11.08;94.71
21824;BME280;11074;48.596;9.238;2022-11-04T08:11:24;97327.50;;;11.10;95.19
21824;BME280;11074;48.596;9.238;2022-11-04T08:13:53;97331.47;;;11.17;94.70
21824;BME280;11074;48.596;9.238;2022-11-04T08:16:22;97331.44;;;11.22;94.82
21824;BME280;11074;48.596;9.238;2022-11-04T08:18:51;97341.03;;;11.28;94.86
21824;BME280;11074;48.596;9.238;2022-11-04T08:21:18;97344.22;;;11.30;94.88
21824;BME280;11074;48.596;9.238;2022-11-04T08:23:44;97340.47;;;11.31;94.11
21824;BME280;11074;48.596;9.238;2022-11-04T08:26:15;97336.97;;;11.36;94.00
21824;BME280;11074;48.596;9.238;2022-11-04T08:28:42;97331.06;;;11.39;94.02
21824;BME280;11074;48.596;9.238;2022-11-04T08:31:13;97332.41;;;11.41;93.95
21824;BME280;11074;48.596;9.238;2022-11-04T08:33:39;97345.19;;;11.44;94.00
21824;BME280;11074;48.596;9.238;2022-11-04T08:36:14;97334.75;;;11.48;94.45
21824;BME280;11074;48.596;9.238;2022-11-04T08:38:40;97336.91;;;11.46;94.22
21824;BME280;11074;48.596;9.238;2022-11-04T08:41:09;97341.72;;;11.49;93.13
21824;BME280;11074;48.596;9.238;2022-11-04T08:43:35;97333.69;;;11.49;92.43
21824;BME280;11074;48.596;9.238;2022-11-04T08:46:06;97335.78;;;11.57;92.89
21824;BME280;11074;48.596;9.238;2022-11-04T08:48:34;97333.59;;;11.59;92.35
21824;BME280;11074;48.596;9.238;2022-11-04T08:51:01;97328.25;;;11.59;92.71
21824;BME280;11074;48.596;9.238;2022-11-04T08:53:27;97336.28;;;11.59;92.41
21824;BME280;11074;48.596;9.238;2022-11-04T08:55:53;97339.72;;;11.65;92.67
21824;BME280;11074;48.596;9.238;2022-11-04T08:58:20;97340.53;;;11.65;92.61
21824;BME280;11074;48.596;9.238;2022-11-04T09:00:48;97339.22;;;11.63;91.74
21824;BME280;11074;48.596;9.238;2022-11-04T09:03:14;97337.84;;;11.65;91.87
21824;BME280;11074;48.596;9.238;2022-11-04T09:05:41;97341.03;;;11.67;91.65
21824;BME280;11074;48.596;9.238;2022-11-04T09:08:14;97350.13;;;11.71;91.84
21824;BME280;11074;48.596;9.238;2022-11-04T09:10:46;97353.06;;;11.75;91.14
21824;BME280;11074;48.596;9.238;2022-11-04T09:13:13;97359.22;;;11.75;90.32
21824;BME280;11074;48.596;9.238;2022-11-04T09:15:40;97359.47;;;11.74;89.50
21824;BME280;11074;48.596;9.238;2022-11-04T09:18:06;97364.28;;;11.77;90.26
21824;BME280;11074;48.596;9.238;2022-11-04T09:20:33;97366.94;;;11.82;90.21
21824;BME280;11074;48.596;9.238;2022-11-04T09:23:03;97364.50;;;11.85;90.18
21824;BME280;11074;48.596;9.238;2022-11-04T09:25:29;97371.97;;;11.88;89.33
21824;BME280;11074;48.596;9.238;2022-11-04T09:27:57;97372.50;;;11.90;89.91
21824;BME280;11074;48.596;9.238;2022-11-04T09:30:24;97370.56;;;11.96;90.51
21824;BME280;11074;48.596;9.238;2022-11-04T09:32:49;97367.34;;;11.99;90.38
21824;BME280;11074;48.596;9.238;2022-11-04T09:35:15;97358.75;;;12.02;91.10
21824;BME280;11074;48.596;9.238;2022-11-04T09:37:42;97352.28;;;12.03;90.49
21824;BME280;11074;48.596;9.238;2022-11-04T09:40:21;97355.69;;;12.13;90.10
21824;BME280;11074;48.596;9.238;2022-11-04T09:43:35;97349.75;;;12.16;89.95
21824;BME280;11074;48.596;9.238;2022-11-04T09:46:09;97346.53;;;12.20;89.15
21824;BME280;11074;48.596;9.238;2022-11-04T09:48:46;97342.72;;;12.26;89.21
21824;BME280;11074;48.596;9.238;2022-11-04T09:51:16;97336.81;;;12.29;88.24
21824;BME280;11074;48.596;9.238;2022-11-04T09:53:47;97337.34;;;12.26;88.04
21824;BME280;11074;48.596;9.238;2022-11-04T09:56:27;97338.91;;;12.32;88.38
21824;BME280;11074;48.596;9.238;2022-11-04T09:58:55;97343.94;;;12.38;87.71
21824;BME280;11074;48.596;9.238;2022-11-04T10:01:35;97338.25;;;12.45;87.46
21824;BME280;11074;48.596;9.238;2022-11-04T10:04:24;97334.94;;;12.53;87.60
21824;BME280;11074;48.596;9.238;2022-11-04T10:07:29;97335.16;;;12.56;86.96
21824;BME280;11074;48.596;9.238;2022-11-04T10:16:12;97325.19;;;12.62;85.75
21824;BME280;11074;48.596;9.238;2022-11-04T10:19:14;97323.88;;;12.59;85.27
21824;BME280;11074;48.596;9.238;2022-11-04T10:22:00;97324.59;;;12.65;85.66
21824;BME280;11074;48.596;9.238;2022-11-04T10:24:56;97318.75;;;12.63;85.61
21824;BME280;11074;48.596;9.238;2022-11-04T10:27:33;97320.00;;;12.70;84.92
21824;BME280;11074;48.596;9.238;2022-11-04T10:30:18;97311.44;;;12.68;84.31
21824;BME280;11074;48.596;9.238;2022-11-04T10:33:08;97310.06;;;12.71;84.18
21824;BME280;11074;48.596;9.238;2022-11-04T10:35:50;97305.72;;;12.75;83.32
21824;BME280;11074;48.596;9.238;2022-11-04T10:38:20;97300.88;;;12.77;83.42
21824;BME280;11074;48.596;9.238;2022-11-04T10:40:53;97309.13;;;12.81;83.01
21824;BME280;11074;48.596;9.238;2022-11-04T10:43:39;97305.31;;;12.87;82.03
21824;BME280;11074;48.596;9.238;2022-11-04T10:46:51;97289.66;;;12.94;81.10
21824;BME280;11074;48.596;9.238;2022-11-04T10:52:16;97296.22;;;13.06;79.28
21824;BME280;11074;48.596;9.238;2022-11-04T10:54:48;97293.19;;;13.13;78.24
21824;BME280;11074;48.596;9.238;2022-11-04T10:57:24;97294.22;;;13.17;76.53
21824;BME280;11074;48.596;9.238;2022-11-04T10:59:58;97285.59;;;13.20;77.81
21824;BME280;11074;48.596;9.238;2022-11-04T11:07:49;97282.31;;;13.23;76.40
21824;BME280;11074;48.596;9.238;2022-11-04T11:10:30;97285.78;;;13.23;76.85
21824;BME280;11074;48.596;9.238;2022-11-04T11:13:03;97283.59;;;13.25;76.00
21824;BME280;11074;48.596;9.238;2022-11-04T11:15:37;97288.97;;;13.25;75.69
21824;BME280;11074;48.596;9.238;2022-11-04T11:18:19;97281.44;;;13.27;75.24
21824;BME280;11074;48.596;9.238;2022-11-04T11:21:02;97287.66;;;13.23;76.01
21824;BME280;11074;48.596;9.238;2022-11-04T11:26:18;97271.38;;;13.19;74.99
21824;BME280;11074;48.596;9.238;2022-11-04T11:28:54;97268.09;;;13.22;75.19
21824;BME280;11074;48.596;9.238;2022-11-04T11:31:23;97268.09;;;13.22;76.53
21824;BME280;11074;48.596;9.238;2022-11-04T11:33:58;97264.81;;;13.25;75.34
21824;BME280;11074;48.596;9.238;2022-11-04T11:36:31;97254.06;;;13.25;74.92
21824;BME280;11074;48.596;9.238;2022-11-04T11:39:31;97255.38;;;13.28;74.97
21824;BME280;11074;48.596;9.238;2022-11-04T11:42:10;97251.63;;;13.29;74.06
21824;BME280;11074;48.596;9.238;2022-11-04T11:44:41;97257.13;;;13.38;74.00
21824;BME280;11074;48.596;9.238;2022-11-04T11:52:43;97261.03;;;13.45;74.79
21824;BME280;11074;48.596;9.238;2022-11-04T11:55:18;97260.97;;;13.50;72.79
21824;BME280;11074;48.596;9.238;2022-11-04T12:00:23;97261.59;;;13.61;74.93
21824;BME280;11074;48.596;9.238;2022-11-04T12:03:22;97256.13;;;13.66;73.17
21824;BME280;11074;48.596;9.238;2022-11-04T12:06:24;97257.75;;;13.67;73.21
21824;BME280;11074;48.596;9.238;2022-11-04T12:12:26;97254.03;;;13.63;73.19
21824;BME280;11074;48.596;9.238;2022-11-04T12:18:00;97259.22;;;13.59;72.47
21824;BME280;11074;48.596;9.238;2022-11-04T12:23:42;97245.47;;;13.61;73.15
21824;BME280;11074;48.596;9.238;2022-11-04T12:29:40;97266.28;;;13.69;72.32
21824;BME280;11074;48.596;9.238;2022-11-04T12:35:23;97271.50;;;13.79;72.48
21824;BME280;11074;48.596;9.238;2022-11-04T12:43:36;97269.44;;;13.89;71.20
21824;BME280;11074;48.596;9.238;2022-11-04T12:52:20;97256.44;;;13.96;70.84
21824;BME280;11074;48.596;9.238;2022-11-04T12:55:14;97263.72;;;14.10;71.04
21824;BME280;11074;48.596;9.238;2022-11-04T13:00:37;97267.91;;;14.16;69.90
21824;BME280;11074;48.596;9.238;2022-11-04T13:03:19;97263.53;;;14.20;70.30
21824;BME280;11074;48.596;9.238;2022-11-04T13:06:11;97269.78;;;14.15;69.17
21824;BME280;11074;48.596;9.238;2022-11-04T13:09:14;97278.75;;;14.24;68.92
21824;BME280;11074;48.596;9.238;2022-11-04T13:11:51;97275.47;;;14.27;69.82
21824;BME280;11074;48.596;9.238;2022-11-04T13:14:47;97282.72;;;14.27;69.64
21824;BME280;11074;48.596;9.238;2022-11-04T13:17:25;97281.66;;;14.28;69.25
21824;BME280;11074;48.596;9.238;2022-11-04T13:19:57;97270.56;;;14.34;69.16
21824;BME280;11074;48.596;9.238;2022-11-04T13:22:33;97277.66;;;14.25;68.87
21824;BME280;11074;48.596;9.238;2022-11-04T13:25:13;97280.78;;;14.46;69.33
21824;BME280;11074;48.596;9.238;2022-11-04T13:27:44;97281.50;;;14.51;67.97
21824;BME280;11074;48.596;9.238;2022-11-04T13:30:35;97280.59;;;14.83;67.11
21824;BME280;11074;48.596;9.238;2022-11-04T13:33:16;97268.53;;;15.30;66.79
21824;BME280;11074;48.596;9.238;2022-11-04T13:38:50;97267.09;;;15.91;63.98
21824;BME280;11074;48.596;9.238;2022-11-04T13:44:34;97270.84;;;15.59;64.49
21824;BME280;11074;48.596;9.238;2022-11-04T13:47:12;97274.66;;;15.44;64.44
21824;BME280;11074;48.596;9.238;2022-11-04T13:49:40;97275.50;;;15.31;65.30
21824;BME280;11074;48.596;9.238;2022-11-04T13:52:12;97278.91;;;15.23;66.79
21824;BME280;11074;48.596;9.238;2022-11-04T13:57:23;97279.25;;;15.08;67.13
21824;BME280;11074;48.596;9.238;2022-11-04T14:02:52;97281.47;;;14.92;67.09
21824;BME280;11074;48.596;9.238;2022-11-04T14:16:36;97283.66;;;16.28;62.93
21824;BME280;11074;48.596;9.238;2022-11-04T14:22:46;97287.25;;;16.24;61.37
21824;BME280;11074;48.596;9.238;2022-11-04T14:30:52;97293.56;;;15.66;63.35
21824;BME280;11074;48.596;9.238;2022-11-04T14:36:28;97296.25;;;15.31;64.41
21824;BME280;11074;48.596;9.238;2022-11-04T14:42:03;97311.34;;;15.18;66.88
21824;BME280;11074;48.596;9.238;2022-11-04T14:44:40;97318.84;;;14.94;67.44
21824;BME280;11074;48.596;9.238;2022-11-04T14:47:28;97326.13;;;14.80;68.96
21824;BME280;11074;48.596;9.238;2022-11-04T14:53:03;97332.78;;;14.41;71.28
21824;BME280;11074;48.596;9.238;2022-11-04T14:55:31;97341.38;;;14.25;73.02
21824;BME280;11074;48.596;9.238;2022-11-04T14:58:25;97349.41;;;14.11;76.46
21824;BME280;11074;48.596;9.238;2022-11-04T15:01:04;97346.34;;;13.85;75.71
21824;BME280;11074;48.596;9.238;2022-11-04T15:03:36;97353.47;;;13.76;78.05
21824;BME280;11074;48.596;9.238;2022-11-04T15:06:06;97357.53;;;13.74;78.13
21824;BME280;11074;48.596;9.238;2022-11-04T15:08:43;97355.44;;;13.71;79.56
21824;BME280;11074;48.596;9.238;2022-11-04T15:13:50;97368.09;;;13.52;80.44
21824;BME280;11074;48.596;9.238;2022-11-04T15:16:27;97370.78;;;13.52;81.97
21824;BME280;11074;48.596;9.238;2022-11-04T15:18:57;97371.28;;;13.54;83.36
21824;BME280;11074;48.596;9.238;2022-11-04T15:21:24;97370.03;;;13.46;84.63
21824;BME280;11074;48.596;9.238;2022-11-04T15:23:53;97379.91;;;13.51;85.42
21824;BME280;11074;48.596;9.238;2022-11-04T15:26:24;97382.91;;;13.49;85.94
21824;BME280;11074;48.596;9.238;2022-11-04T15:28:51;97380.78;;;13.46;86.25
21824;BME280;11074;48.596;9.238;2022-11-04T15:31:22;97382.66;;;13.46;87.69
21824;BME280;11074;48.596;9.238;2022-11-04T15:33:51;97379.25;;;13.40;86.56
21824;BME280;11074;48.596;9.238;2022-11-04T15:36:36;97383.53;;;13.41;88.56
21824;BME280;11074;48.596;9.238;2022-11-04T15:39:20;97394.31;;;13.36;87.50
21824;BME280;11074;48.596;9.238;2022-11-04T15:41:51;97387.16;;;13.31;86.78